sensor_id;sensor_type;location;lat;lon;timestamp;temperature;humidity
79065;DHT22;68469;51.502;7.462;2023-03-14T00:00:59;19.50;66.40
79065;DHT22;68469;51.502;7.462;2023-03-14T00:03:24;19.50;66.40
79065;DHT22;68469;51.502;7.462;2023-03-14T00:05:50;19.50;66.30
79065;DHT22;68469;51.502;7.462;2023-03-14T00:08:15;19.50;66.40
79065;DHT22;68469;51.502;7.462;2023-03-14T00:10:41;19.50;66.40
79065;DHT22;68469;51.502;7.462;2023-03-14T00:13:07;19.50;66.30
79065;DHT22;68469;51.502;7.462;2023-03-14T00:15:36;19.50;66.40
79065;DHT22;68469;51.502;7.462;2023-03-14T00:18:01;19.50;66.40
79065;DHT22;68469;51.502;7.462;2023-03-14T00:20:27;19.50;66.60
79065;DHT22;68469;51.502;7.462;2023-03-14T00:22:52;19.50;66.40
79065;DHT22;68469;51.502;7.462;2023-03-14T00:25:18;19.50;66.10
79065;DHT22;68469;51.502;7.462;2023-03-14T00:27:44;19.50;66.40
79065;DHT22;68469;51.502;7.462;2023-03-14T00:30:10;19.50;66.40
79065;DHT22;68469;51.502;7.462;2023-03-14T00:32:36;19.50;66.20
79065;DHT22;68469;51.502;7.462;2023-03-14T00:35:02;19.50;66.40
79065;DHT22;68469;51.502;7.462;2023-03-14T00:37:29;19.50;66.30
79065;DHT22;68469;51.502;7.462;2023-03-14T00:39:54;19.50;66.60
79065;DHT22;68469;51.502;7.462;2023-03-14T00:42:20;19.50;66.40
79065;DHT22;68469;51.502;7.462;2023-03-14T00:44:46;19.50;66.70
79065;DHT22;68469;51.502;7.462;2023-03-14T00:47:11;19.50;66.60
79065;DHT22;68469;51.502;7.462;2023-03-14T00:49:37;19.50;66.70
79065;DHT22;68469;51.502;7.462;2023-03-14T00:52:03;19.50;66.60
79065;DHT22;68469;51.502;7.462;2023-03-14T00:54:28;19.50;66.70
79065;DHT22;68469;51.502;7.462;2023-03-14T00:56:54;19.50;66.70
79065;DHT22;68469;51.502;7.462;2023-03-14T00:59:21;19.50;66.70
79065;DHT22;68469;51.502;7.462;2023-03-14T01:01:47;19.50;66.60
79065;DHT22;68469;51.502;7.462;2023-03-14T01:04:12;19.50;66.50
79065;DHT22;68469;51.502;7.462;2023-03-14T01:06:38;19.50;66.60
79065;DHT22;68469;51.502;7.462;2023-03-14T01:09:04;19.50;66.70
79065;DHT22;68469;51.502;7.462;2023-03-14T01:11:33;19.50;66.40
79065;DHT22;68469;51.502;7.462;2023-03-14T01:13:59;19.50;66.70
79065;DHT22;68469;51.502;7.462;2023-03-14T01:16:27;19.50;66.80
79065;DHT22;68469;51.502;7.462;2023-03-14T01:18:53;19.50;67.50
79065;DHT22;68469;51.502;7.462;2023-03-14T01:21:25;19.50;66.80
79065;DHT22;68469;51.502;7.462;2023-03-14T01:23:54;19.50;66.90
79065;DHT22;68469;51.502;7.462;2023-03-14T01:26:21;19.50;66.80
79065;DHT22;68469;51.502;7.462;2023-03-14T01:28:49;19.50;66.80
79065;DHT22;68469;51.502;7.462;2023-03-14T01:31:15;19.50;66.90
79065;DHT22;68469;51.502;7.462;2023-03-14T01:33:41;19.50;66.80
79065;DHT22;68469;51.502;7.462;2023-03-14T01:36:08;19.50;66.90
79065;DHT22;68469;51.502;7.462;2023-03-14T01:38:36;19.50;66.90
79065;DHT22;68469;51.502;7.462;2023-03-14T01:41:02;19.50;66.60
79065;DHT22;68469;51.502;7.462;2023-03-14T01:43:30;19.50;66.70
79065;DHT22;68469;51.502;7.462;2023-03-14T01:48:22;19.50;66.80
79065;DHT22;68469;51.502;7.462;2023-03-14T01:50:47;19.50;66.90
79065;DHT22;68469;51.502;7.462;2023-03-14T01:53:14;19.50;66.90
79065;DHT22;68469;51.502;7.462;2023-03-14T01:55:40;19.50;66.90
79065;DHT22;68469;51.502;7.462;2023-03-14T01:58:06;19.50;66.90
79065;DHT22;68469;51.502;7.462;2023-03-14T02:00:33;19.50;67.10
79065;DHT22;68469;51.502;7.462;2023-03-14T02:03:09;19.50;67.00
79065;DHT22;68469;51.502;7.462;2023-03-14T02:05:39;19.40;67.00
79065;DHT22;68469;51.502;7.462;2023-03-14T02:08:08;19.50;67.00
79065;DHT22;68469;51.502;7.462;2023-03-14T02:10:39;19.50;67.00
79065;DHT22;68469;51.502;7.462;2023-03-14T02:13:06;19.50;67.70
79065;DHT22;68469;51.502;7.462;2023-03-14T02:15:32;19.40;67.10
79065;DHT22;68469;51.502;7.462;2023-03-14T02:17:58;19.40;66.90
79065;DHT22;68469;51.502;7.462;2023-03-14T02:20:36;19.40;67.20
79065;DHT22;68469;51.502;7.462;2023-03-14T02:23:04;19.40;67.00
79065;DHT22;68469;51.502;7.462;2023-03-14T02:25:51;19.40;66.80
79065;DHT22;68469;51.502;7.462;2023-03-14T02:28:20;19.40;66.90
79065;DHT22;68469;51.502;7.462;2023-03-14T02:30:46;19.40;66.90
79065;DHT22;68469;51.502;7.462;2023-03-14T02:33:17;19.40;67.00
79065;DHT22;68469;51.502;7.462;2023-03-14T02:41:05;19.40;66.90
79065;DHT22;68469;51.502;7.462;2023-03-14T02:43:31;19.40;66.80
79065;DHT22;68469;51.502;7.462;2023-03-14T02:45:56;19.40;67.00
79065;DHT22;68469;51.502;7.462;2023-03-14T02:48:25;19.40;66.80
79065;DHT22;68469;51.502;7.462;2023-03-14T02:50:54;19.40;66.60
79065;DHT22;68469;51.502;7.462;2023-03-14T02:53:27;19.40;66.90
79065;DHT22;68469;51.502;7.462;2023-03-14T02:55:53;19.40;66.90
79065;DHT22;68469;51.502;7.462;2023-03-14T02:58:19;19.40;67.00
79065;DHT22;68469;51.502;7.462;2023-03-14T03:00:45;19.40;66.90
79065;DHT22;68469;51.502;7.462;2023-03-14T03:03:11;19.40;67.00
79065;DHT22;68469;51.502;7.462;2023-03-14T03:05:37;19.40;67.00
79065;DHT22;68469;51.502;7.462;2023-03-14T03:08:03;19.40;67.00
79065;DHT22;68469;51.502;7.462;2023-03-14T03:10:30;19.40;66.90
79065;DHT22;68469;51.502;7.462;2023-03-14T03:12:56;19.40;67.00
79065;DHT22;68469;51.502;7.462;2023-03-14T03:15:21;19.40;67.00
79065;DHT22;68469;51.502;7.462;2023-03-14T03:17:47;19.40;67.60
79065;DHT22;68469;51.502;7.462;2023-03-14T03:20:13;19.40;66.80
79065;DHT22;68469;51.502;7.462;2023-03-14T03:22:38;19.40;66.90
79065;DHT22;68469;51.502;7.462;2023-03-14T03:25:06;19.40;67.00
79065;DHT22;68469;51.502;7.462;2023-03-14T03:27:36;19.40;66.80
79065;DHT22;68469;51.502;7.462;2023-03-14T03:30:04;19.40;67.00
79065;DHT22;68469;51.502;7.462;2023-03-14T03:32:30;19.40;67.70
79065;DHT22;68469;51.502;7.462;2023-03-14T03:34:56;19.40;67.10
79065;DHT22;68469;51.502;7.462;2023-03-14T03:37:22;19.40;67.00
79065;DHT22;68469;51.502;7.462;2023-03-14T03:39:50;19.40;67.10
79065;DHT22;68469;51.502;7.462;2023-03-14T03:42:16;19.40;66.80
79065;DHT22;68469;51.502;7.462;2023-03-14T03:44:42;19.40;67.20
79065;DHT22;68469;51.502;7.462;2023-03-14T03:47:07;19.40;67.10
79065;DHT22;68469;51.502;7.462;2023-03-14T03:49:33;19.40;67.20
79065;DHT22;68469;51.502;7.462;2023-03-14T03:51:59;19.40;67.10
79065;DHT22;68469;51.502;7.462;2023-03-14T03:54:24;19.40;67.10
79065;DHT22;68469;51.502;7.462;2023-03-14T03:56:50;19.40;66.60
79065;DHT22;68469;51.502;7.462;2023-03-14T03:59:16;19.40;66.90
79065;DHT22;68469;51.502;7.462;2023-03-14T04:01:42;19.40;66.90
79065;DHT22;68469;51.502;7.462;2023-03-14T04:04:08;19.40;66.90
79065;DHT22;68469;51.502;7.462;2023-03-14T04:06:33;19.40;67.00
79065;DHT22;68469;51.502;7.462;2023-03-14T04:08:59;19.40;67.20
79065;DHT22;68469;51.502;7.462;2023-03-14T04:11:25;19.40;67.30
79065;DHT22;68469;51.502;7.462;2023-03-14T04:13:50;19.40;67.00
79065;DHT22;68469;51.502;7.462;2023-03-14T04:16:25;19.40;67.00
79065;DHT22;68469;51.502;7.462;2023-03-14T04:18:52;19.40;67.30
79065;DHT22;68469;51.502;7.462;2023-03-14T04:21:17;19.40;67.10
79065;DHT22;68469;51.502;7.462;2023-03-14T04:23:43;19.40;67.30
79065;DHT22;68469;51.502;7.462;2023-03-14T04:26:09;19.40;66.90
79065;DHT22;68469;51.502;7.462;2023-03-14T04:28:35;19.40;67.10
79065;DHT22;68469;51.502;7.462;2023-03-14T04:31:19;19.40;67.20
79065;DHT22;68469;51.502;7.462;2023-03-14T04:33:45;19.40;67.00
79065;DHT22;68469;51.502;7.462;2023-03-14T04:36:11;19.40;66.30
79065;DHT22;68469;51.502;7.462;2023-03-14T04:38:37;19.40;66.70
79065;DHT22;68469;51.502;7.462;2023-03-14T04:41:03;19.40;66.80
79065;DHT22;68469;51.502;7.462;2023-03-14T04:43:28;19.40;66.80
79065;DHT22;68469;51.502;7.462;2023-03-14T04:45:55;19.40;67.10
79065;DHT22;68469;51.502;7.462;2023-03-14T04:48:21;19.40;67.20
79065;DHT22;68469;51.502;7.462;2023-03-14T04:50:47;19.40;67.20
79065;DHT22;68469;51.502;7.462;2023-03-14T04:53:14;19.40;67.30
79065;DHT22;68469;51.502;7.462;2023-03-14T04:55:39;19.40;67.30
79065;DHT22;68469;51.502;7.462;2023-03-14T04:58:05;19.40;67.30
79065;DHT22;68469;51.502;7.462;2023-03-14T05:00:31;19.40;67.30
79065;DHT22;68469;51.502;7.462;2023-03-14T05:02:56;19.40;67.40
79065;DHT22;68469;51.502;7.462;2023-03-14T05:05:22;19.40;67.40
79065;DHT22;68469;51.502;7.462;2023-03-14T05:07:47;19.40;67.50
79065;DHT22;68469;51.502;7.462;2023-03-14T05:10:13;19.40;67.40
79065;DHT22;68469;51.502;7.462;2023-03-14T05:12:39;19.40;67.50
79065;DHT22;68469;51.502;7.462;2023-03-14T05:15:05;19.40;67.30
79065;DHT22;68469;51.502;7.462;2023-03-14T05:17:32;19.40;67.30
79065;DHT22;68469;51.502;7.462;2023-03-14T05:19:58;19.40;67.30
79065;DHT22;68469;51.502;7.462;2023-03-14T05:22:24;19.40;67.30
79065;DHT22;68469;51.502;7.462;2023-03-14T05:24:49;19.40;67.40
79065;DHT22;68469;51.502;7.462;2023-03-14T05:27:15;19.40;67.50
79065;DHT22;68469;51.502;7.462;2023-03-14T05:29:40;19.40;67.50
79065;DHT22;68469;51.502;7.462;2023-03-14T05:32:06;19.40;67.40
79065;DHT22;68469;51.502;7.462;2023-03-14T05:34:31;19.40;67.50
79065;DHT22;68469;51.502;7.462;2023-03-14T05:36:57;19.40;67.40
79065;DHT22;68469;51.502;7.462;2023-03-14T05:39:23;19.40;67.50
79065;DHT22;68469;51.502;7.462;2023-03-14T05:41:48;19.30;67.50
79065;DHT22;68469;51.502;7.462;2023-03-14T05:44:14;19.40;67.60
79065;DHT22;68469;51.502;7.462;2023-03-14T05:46:39;19.40;67.50
79065;DHT22;68469;51.502;7.462;2023-03-14T05:49:05;19.30;67.50
79065;DHT22;68469;51.502;7.462;2023-03-14T05:51:31;19.30;67.50
79065;DHT22;68469;51.502;7.462;2023-03-14T05:53:56;19.30;67.50
79065;DHT22;68469;51.502;7.462;2023-03-14T05:56:22;19.30;67.20
79065;DHT22;68469;51.502;7.462;2023-03-14T05:58:48;19.30;67.30
79065;DHT22;68469;51.502;7.462;2023-03-14T06:01:13;19.40;67.30
79065;DHT22;68469;51.502;7.462;2023-03-14T06:03:39;19.30;67.20
79065;DHT22;68469;51.502;7.462;2023-03-14T06:06:04;19.30;67.30
79065;DHT22;68469;51.502;7.462;2023-03-14T06:08:30;19.30;67.30
79065;DHT22;68469;51.502;7.462;2023-03-14T06:10:57;19.40;67.50
79065;DHT22;68469;51.502;7.462;2023-03-14T06:13:22;19.30;67.70
79065;DHT22;68469;51.502;7.462;2023-03-14T06:15:48;19.30;67.40
79065;DHT22;68469;51.502;7.462;2023-03-14T06:18:14;19.30;67.20
79065;DHT22;68469;51.502;7.462;2023-03-14T06:20:39;19.30;67.50
79065;DHT22;68469;51.502;7.462;2023-03-14T06:23:06;19.30;67.20
79065;DHT22;68469;51.502;7.462;2023-03-14T06:25:33;19.30;67.10
79065;DHT22;68469;51.502;7.462;2023-03-14T06:27:59;19.30;67.40
79065;DHT22;68469;51.502;7.462;2023-03-14T06:30:24;19.30;67.20
79065;DHT22;68469;51.502;7.462;2023-03-14T06:32:50;19.30;67.20
79065;DHT22;68469;51.502;7.462;2023-03-14T06:35:16;19.30;67.20
79065;DHT22;68469;51.502;7.462;2023-03-14T06:37:41;19.30;67.20
79065;DHT22;68469;51.502;7.462;2023-03-14T06:40:08;19.30;67.10
79065;DHT22;68469;51.502;7.462;2023-03-14T06:42:34;19.30;67.30
79065;DHT22;68469;51.502;7.462;2023-03-14T06:45:00;19.30;67.20
79065;DHT22;68469;51.502;7.462;2023-03-14T06:47:25;19.30;67.30
79065;DHT22;68469;51.502;7.462;2023-03-14T06:49:51;19.30;67.30
79065;DHT22;68469;51.502;7.462;2023-03-14T06:52:16;19.30;67.20
79065;DHT22;68469;51.502;7.462;2023-03-14T06:54:42;19.30;67.20
79065;DHT22;68469;51.502;7.462;2023-03-14T06:57:07;19.30;67.30
79065;DHT22;68469;51.502;7.462;2023-03-14T06:59:33;19.30;67.40
79065;DHT22;68469;51.502;7.462;2023-03-14T07:01:58;19.30;67.30
79065;DHT22;68469;51.502;7.462;2023-03-14T07:04:24;19.30;67.20
79065;DHT22;68469;51.502;7.462;2023-03-14T07:06:50;19.30;67.00
79065;DHT22;68469;51.502;7.462;2023-03-14T07:09:16;19.30;67.50
79065;DHT22;68469;51.502;7.462;2023-03-14T07:11:44;19.30;67.50
79065;DHT22;68469;51.502;7.462;2023-03-14T07:14:10;19.30;67.30
79065;DHT22;68469;51.502;7.462;2023-03-14T07:16:36;19.30;67.50
79065;DHT22;68469;51.502;7.462;2023-03-14T07:19:02;19.30;67.50
79065;DHT22;68469;51.502;7.462;2023-03-14T07:21:27;19.30;67.30
79065;DHT22;68469;51.502;7.462;2023-03-14T07:23:53;19.30;67.30
79065;DHT22;68469;51.502;7.462;2023-03-14T07:26:19;19.40;67.40
79065;DHT22;68469;51.502;7.462;2023-03-14T07:28:44;19.40;67.40
79065;DHT22;68469;51.502;7.462;2023-03-14T07:31:10;19.30;67.40
79065;DHT22;68469;51.502;7.462;2023-03-14T07:33:36;19.40;67.50
79065;DHT22;68469;51.502;7.462;2023-03-14T07:36:02;19.40;67.40
79065;DHT22;68469;51.502;7.462;2023-03-14T07:38:28;19.40;67.50
79065;DHT22;68469;51.502;7.462;2023-03-14T07:41:01;19.40;67.50
79065;DHT22;68469;51.502;7.462;2023-03-14T07:43:27;19.40;67.30
79065;DHT22;68469;51.502;7.462;2023-03-14T07:45:53;19.40;68.10
79065;DHT22;68469;51.502;7.462;2023-03-14T07:48:19;19.40;68.10
79065;DHT22;68469;51.502;7.462;2023-03-14T07:50:48;19.50;68.50
79065;DHT22;68469;51.502;7.462;2023-03-14T07:53:14;19.50;67.70
79065;DHT22;68469;51.502;7.462;2023-03-14T07:55:40;19.50;67.40
79065;DHT22;68469;51.502;7.462;2023-03-14T07:58:06;19.50;67.30
79065;DHT22;68469;51.502;7.462;2023-03-14T08:00:31;19.50;67.50
79065;DHT22;68469;51.502;7.462;2023-03-14T08:02:57;19.50;67.10
79065;DHT22;68469;51.502;7.462;2023-03-14T08:05:22;19.50;66.90
79065;DHT22;68469;51.502;7.462;2023-03-14T08:07:48;19.50;67.00
79065;DHT22;68469;51.502;7.462;2023-03-14T08:10:14;19.50;67.20
79065;DHT22;68469;51.502;7.462;2023-03-14T08:12:46;19.50;66.80
79065;DHT22;68469;51.502;7.462;2023-03-14T08:15:11;19.50;66.80
79065;DHT22;68469;51.502;7.462;2023-03-14T08:17:37;19.50;67.20
79065;DHT22;68469;51.502;7.462;2023-03-14T08:20:03;19.50;66.90
79065;DHT22;68469;51.502;7.462;2023-03-14T08:22:32;19.40;67.00
79065;DHT22;68469;51.502;7.462;2023-03-14T08:24:57;19.50;67.00
79065;DHT22;68469;51.502;7.462;2023-03-14T08:27:23;19.50;67.60
79065;DHT22;68469;51.502;7.462;2023-03-14T08:29:49;19.40;66.60
79065;DHT22;68469;51.502;7.462;2023-03-14T08:32:14;19.40;67.00
79065;DHT22;68469;51.502;7.462;2023-03-14T08:34:40;19.40;67.40
79065;DHT22;68469;51.502;7.462;2023-03-14T08:37:05;19.40;67.40
79065;DHT22;68469;51.502;7.462;2023-03-14T08:39:31;19.40;67.50
79065;DHT22;68469;51.502;7.462;2023-03-14T08:41:56;19.40;67.70
79065;DHT22;68469;51.502;7.462;2023-03-14T08:44:22;19.40;67.60
79065;DHT22;68469;51.502;7.462;2023-03-14T08:46:47;19.40;67.70
79065;DHT22;68469;51.502;7.462;2023-03-14T08:49:13;19.40;67.60
79065;DHT22;68469;51.502;7.462;2023-03-14T08:51:40;19.40;67.50
79065;DHT22;68469;51.502;7.462;2023-03-14T08:54:05;19.30;67.70
79065;DHT22;68469;51.502;7.462;2023-03-14T08:56:31;19.30;67.60
79065;DHT22;68469;51.502;7.462;2023-03-14T08:58:56;19.30;67.50
79065;DHT22;68469;51.502;7.462;2023-03-14T09:01:22;19.30;67.50
79065;DHT22;68469;51.502;7.462;2023-03-14T09:03:50;19.30;67.70
79065;DHT22;68469;51.502;7.462;2023-03-14T09:06:16;19.30;67.50
79065;DHT22;68469;51.502;7.462;2023-03-14T09:08:45;19.30;67.50
79065;DHT22;68469;51.502;7.462;2023-03-14T09:11:11;19.30;67.60
79065;DHT22;68469;51.502;7.462;2023-03-14T09:13:37;19.30;67.50
79065;DHT22;68469;51.502;7.462;2023-03-14T09:16:03;19.30;67.60
79065;DHT22;68469;51.502;7.462;2023-03-14T09:18:29;19.30;68.30
79065;DHT22;68469;51.502;7.462;2023-03-14T09:20:55;19.30;67.50
79065;DHT22;68469;51.502;7.462;2023-03-14T09:23:21;19.30;67.60
79065;DHT22;68469;51.502;7.462;2023-03-14T09:25:46;19.30;67.80
79065;DHT22;68469;51.502;7.462;2023-03-14T09:28:12;19.30;67.50
79065;DHT22;68469;51.502;7.462;2023-03-14T09:30:38;19.30;67.50
79065;DHT22;68469;51.502;7.462;2023-03-14T09:33:04;19.30;67.80
79065;DHT22;68469;51.502;7.462;2023-03-14T09:35:29;19.30;67.60
79065;DHT22;68469;51.502;7.462;2023-03-14T09:37:55;19.30;67.70
79065;DHT22;68469;51.502;7.462;2023-03-14T09:40:21;19.30;67.60
79065;DHT22;68469;51.502;7.462;2023-03-14T09:42:50;19.30;67.70
79065;DHT22;68469;51.502;7.462;2023-03-14T09:45:31;19.30;67.70
79065;DHT22;68469;51.502;7.462;2023-03-14T09:47:58;19.30;67.70
79065;DHT22;68469;51.502;7.462;2023-03-14T09:50:25;19.30;67.80
79065;DHT22;68469;51.502;7.462;2023-03-14T09:52:59;19.30;67.70
79065;DHT22;68469;51.502;7.462;2023-03-14T09:55:27;19.30;67.80
79065;DHT22;68469;51.502;7.462;2023-03-14T09:57:59;19.30;67.80
79065;DHT22;68469;51.502;7.462;2023-03-14T10:00:30;19.30;67.90
79065;DHT22;68469;51.502;7.462;2023-03-14T10:05:42;19.30;67.80
79065;DHT22;68469;51.502;7.462;2023-03-14T10:08:11;19.30;67.80
79065;DHT22;68469;51.502;7.462;2023-03-14T10:10:37;19.30;67.90
79065;DHT22;68469;51.502;7.462;2023-03-14T10:13:21;19.30;67.90
79065;DHT22;68469;51.502;7.462;2023-03-14T10:16:07;19.30;67.70
79065;DHT22;68469;51.502;7.462;2023-03-14T10:18:33;19.30;67.60
79065;DHT22;68469;51.502;7.462;2023-03-14T10:21:26;19.30;67.70
79065;DHT22;68469;51.502;7.462;2023-03-14T10:23:52;19.30;67.60
79065;DHT22;68469;51.502;7.462;2023-03-14T10:26:24;19.30;67.50
79065;DHT22;68469;51.502;7.462;2023-03-14T10:29:02;19.30;67.60
79065;DHT22;68469;51.502;7.462;2023-03-14T10:31:56;19.30;67.70
79065;DHT22;68469;51.502;7.462;2023-03-14T10:34:35;19.30;67.70
79065;DHT22;68469;51.502;7.462;2023-03-14T10:37:23;19.30;67.80
79065;DHT22;68469;51.502;7.462;2023-03-14T10:39:53;19.30;67.80
79065;DHT22;68469;51.502;7.462;2023-03-14T10:42:29;19.30;67.70
79065;DHT22;68469;51.502;7.462;2023-03-14T10:45:02;19.30;67.80
79065;DHT22;68469;51.502;7.462;2023-03-14T10:47:29;19.30;67.90
79065;DHT22;68469;51.502;7.462;2023-03-14T10:49:57;19.30;67.70
79065;DHT22;68469;51.502;7.462;2023-03-14T10:52:47;19.20;67.60
79065;DHT22;68469;51.502;7.462;2023-03-14T10:55:14;19.30;67.50
79065;DHT22;68469;51.502;7.462;2023-03-14T10:57:43;19.30;67.50
79065;DHT22;68469;51.502;7.462;2023-03-14T11:02:49;19.30;67.50
79065;DHT22;68469;51.502;7.462;2023-03-14T11:13:57;19.30;67.50
79065;DHT22;68469;51.502;7.462;2023-03-14T11:24:35;19.30;67.40
79065;DHT22;68469;51.502;7.462;2023-03-14T11:27:48;19.30;67.40
79065;DHT22;68469;51.502;7.462;2023-03-14T11:30:18;19.30;67.20
79065;DHT22;68469;51.502;7.462;2023-03-14T11:35:33;19.30;67.20
79065;DHT22;68469;51.502;7.462;2023-03-14T11:40:57;19.30;67.40
79065;DHT22;68469;51.502;7.462;2023-03-14T11:43:30;19.30;67.40
79065;DHT22;68469;51.502;7.462;2023-03-14T11:46:05;19.30;67.40
79065;DHT22;68469;51.502;7.462;2023-03-14T11:51:35;19.30;67.20
79065;DHT22;68469;51.502;7.462;2023-03-14T11:54:24;19.30;67.20
79065;DHT22;68469;51.502;7.462;2023-03-14T11:57:05;19.20;67.10
79065;DHT22;68469;51.502;7.462;2023-03-14T11:59:47;19.20;67.40
79065;DHT22;68469;51.502;7.462;2023-03-14T12:10:50;19.20;67.30
79065;DHT22;68469;51.502;7.462;2023-03-14T12:13:17;19.20;67.00
79065;DHT22;68469;51.502;7.462;2023-03-14T12:15:57;19.20;67.10
79065;DHT22;68469;51.502;7.462;2023-03-14T12:18:31;19.20;66.90
79065;DHT22;68469;51.502;7.462;2023-03-14T12:21:02;19.20;67.00
79065;DHT22;68469;51.502;7.462;2023-03-14T12:23:40;19.20;67.10
79065;DHT22;68469;51.502;7.462;2023-03-14T12:28:51;19.20;67.00
79065;DHT22;68469;51.502;7.462;2023-03-14T12:31:46;19.20;67.00
79065;DHT22;68469;51.502;7.462;2023-03-14T12:42:03;19.30;66.90
79065;DHT22;68469;51.502;7.462;2023-03-14T13:31:23;19.10;68.30
79065;DHT22;68469;51.502;7.462;2023-03-14T13:34:00;19.20;68.50
79065;DHT22;68469;51.502;7.462;2023-03-14T13:36:26;19.20;68.10
79065;DHT22;68469;51.502;7.462;2023-03-14T13:38:58;19.20;67.90
79065;DHT22;68469;51.502;7.462;2023-03-14T13:41:24;19.30;67.90
79065;DHT22;68469;51.502;7.462;2023-03-14T13:43:50;19.30;67.90
79065;DHT22;68469;51.502;7.462;2023-03-14T13:46:21;19.30;67.80
79065;DHT22;68469;51.502;7.462;2023-03-14T13:48:53;19.30;67.60
79065;DHT22;68469;51.502;7.462;2023-03-14T13:51:21;19.30;67.50
79065;DHT22;68469;51.502;7.462;2023-03-14T13:53:52;19.30;67.50
79065;DHT22;68469;51.502;7.462;2023-03-14T13:56:19;19.30;67.40
79065;DHT22;68469;51.502;7.462;2023-03-14T13:58:45;19.30;67.40
79065;DHT22;68469;51.502;7.462;2023-03-14T14:01:27;19.30;67.40
79065;DHT22;68469;51.502;7.462;2023-03-14T14:03:56;19.30;67.40
79065;DHT22;68469;51.502;7.462;2023-03-14T14:08:50;19.30;67.10
79065;DHT22;68469;51.502;7.462;2023-03-14T14:11:31;19.30;67.40
79065;DHT22;68469;51.502;7.462;2023-03-14T14:13:59;19.30;67.10
79065;DHT22;68469;51.502;7.462;2023-03-14T14:16:25;19.30;67.20
79065;DHT22;68469;51.502;7.462;2023-03-14T14:18:55;19.30;66.80
79065;DHT22;68469;51.502;7.462;2023-03-14T14:21:21;19.40;66.80
79065;DHT22;68469;51.502;7.462;2023-03-14T14:23:48;19.40;67.00
79065;DHT22;68469;51.502;7.462;2023-03-14T14:26:16;19.40;66.80
79065;DHT22;68469;51.502;7.462;2023-03-14T14:28:43;19.40;66.60
79065;DHT22;68469;51.502;7.462;2023-03-14T14:33:53;19.40;66.70
79065;DHT22;68469;51.502;7.462;2023-03-14T14:38:59;19.40;66.60
79065;DHT22;68469;51.502;7.462;2023-03-14T14:41:30;19.40;66.70
79065;DHT22;68469;51.502;7.462;2023-03-14T14:43:57;19.40;66.70
79065;DHT22;68469;51.502;7.462;2023-03-14T14:46:26;19.40;66.60
79065;DHT22;68469;51.502;7.462;2023-03-14T14:48:56;19.40;66.60
79065;DHT22;68469;51.502;7.462;2023-03-14T14:51:24;19.40;67.40
79065;DHT22;68469;51.502;7.462;2023-03-14T14:54:04;19.40;66.70
79065;DHT22;68469;51.502;7.462;2023-03-14T14:56:35;19.40;66.70
79065;DHT22;68469;51.502;7.462;2023-03-14T14:59:03;19.40;66.60
79065;DHT22;68469;51.502;7.462;2023-03-14T15:01:38;19.30;66.60
79065;DHT22;68469;51.502;7.462;2023-03-14T15:04:12;19.40;66.60
79065;DHT22;68469;51.502;7.462;2023-03-14T15:06:39;19.40;66.60
79065;DHT22;68469;51.502;7.462;2023-03-14T15:09:09;19.40;66.80
79065;DHT22;68469;51.502;7.462;2023-03-14T15:11:35;19.40;66.60
79065;DHT22;68469;51.502;7.462;2023-03-14T15:14:01;19.30;66.60
79065;DHT22;68469;51.502;7.462;2023-03-14T15:16:30;19.30;66.70
79065;DHT22;68469;51.502;7.462;2023-03-14T15:19:01;19.30;67.00
79065;DHT22;68469;51.502;7.462;2023-03-14T15:21:30;19.30;66.70
79065;DHT22;68469;51.502;7.462;2023-03-14T15:23:56;19.30;66.70
79065;DHT22;68469;51.502;7.462;2023-03-14T15:26:25;19.30;66.60
79065;DHT22;68469;51.502;7.462;2023-03-14T15:28:51;19.30;66.80
79065;DHT22;68469;51.502;7.462;2023-03-14T15:31:18;19.30;66.70
79065;DHT22;68469;51.502;7.462;2023-03-14T15:33:45;19.30;66.60
79065;DHT22;68469;51.502;7.462;2023-03-14T15:36:26;19.30;66.50
79065;DHT22;68469;51.502;7.462;2023-03-14T15:38:54;19.30;66.70
79065;DHT22;68469;51.502;7.462;2023-03-14T15:41:20;19.30;66.50
79065;DHT22;68469;51.502;7.462;2023-03-14T15:43:46;19.30;66.60
79065;DHT22;68469;51.502;7.462;2023-03-14T15:46:12;19.30;66.40
79065;DHT22;68469;51.502;7.462;2023-03-14T15:48:40;19.30;66.40
79065;DHT22;68469;51.502;7.462;2023-03-14T15:51:05;19.30;66.60
79065;DHT22;68469;51.502;7.462;2023-03-14T15:53:31;19.30;66.50
79065;DHT22;68469;51.502;7.462;2023-03-14T15:55:57;19.30;66.60
79065;DHT22;68469;51.502;7.462;2023-03-14T15:58:22;19.30;66.50
79065;DHT22;68469;51.502;7.462;2023-03-14T16:00:48;19.30;66.90
79065;DHT22;68469;51.502;7.462;2023-03-14T16:03:14;19.30;66.40
79065;DHT22;68469;51.502;7.462;2023-03-14T16:05:40;19.30;66.30
79065;DHT22;68469;51.502;7.462;2023-03-14T16:08:06;19.30;66.20
79065;DHT22;68469;51.502;7.462;2023-03-14T16:10:32;19.30;66.30
79065;DHT22;68469;51.502;7.462;2023-03-14T16:12:58;19.30;66.40
79065;DHT22;68469;51.502;7.462;2023-03-14T16:15:23;19.30;66.40
79065;DHT22;68469;51.502;7.462;2023-03-14T16:17:54;19.30;66.40
79065;DHT22;68469;51.502;7.462;2023-03-14T16:20:21;19.20;66.30
79065;DHT22;68469;51.502;7.462;2023-03-14T16:22:47;19.20;66.30
79065;DHT22;68469;51.502;7.462;2023-03-14T16:25:13;19.30;66.40
79065;DHT22;68469;51.502;7.462;2023-03-14T16:27:39;19.30;66.30
79065;DHT22;68469;51.502;7.462;2023-03-14T16:30:05;19.30;66.20
79065;DHT22;68469;51.502;7.462;2023-03-14T16:32:31;19.20;66.30
79065;DHT22;68469;51.502;7.462;2023-03-14T16:34:57;19.30;66.40
79065;DHT22;68469;51.502;7.462;2023-03-14T16:37:23;19.20;66.30
79065;DHT22;68469;51.502;7.462;2023-03-14T16:39:49;19.20;66.30
79065;DHT22;68469;51.502;7.462;2023-03-14T16:42:15;19.20;66.10
79065;DHT22;68469;51.502;7.462;2023-03-14T16:44:41;19.20;66.10
79065;DHT22;68469;51.502;7.462;2023-03-14T16:47:07;19.20;66.10
79065;DHT22;68469;51.502;7.462;2023-03-14T16:49:33;19.20;66.50
79065;DHT22;68469;51.502;7.462;2023-03-14T16:51:59;19.20;66.20
79065;DHT22;68469;51.502;7.462;2023-03-14T16:54:24;19.20;66.40
79065;DHT22;68469;51.502;7.462;2023-03-14T16:56:50;19.20;66.40
79065;DHT22;68469;51.502;7.462;2023-03-14T16:59:18;19.20;66.40
79065;DHT22;68469;51.502;7.462;2023-03-14T17:01:43;19.20;66.30
79065;DHT22;68469;51.502;7.462;2023-03-14T17:04:09;19.20;66.40
79065;DHT22;68469;51.502;7.462;2023-03-14T17:06:36;19.20;66.30
79065;DHT22;68469;51.502;7.462;2023-03-14T17:09:03;19.20;66.30
79065;DHT22;68469;51.502;7.462;2023-03-14T17:11:33;19.20;66.20
79065;DHT22;68469;51.502;7.462;2023-03-14T17:14:00;19.20;66.20
79065;DHT22;68469;51.502;7.462;2023-03-14T17:16:25;19.20;66.30
79065;DHT22;68469;51.502;7.462;2023-03-14T17:18:51;19.20;66.20
79065;DHT22;68469;51.502;7.462;2023-03-14T17:21:17;19.20;66.30
79065;DHT22;68469;51.502;7.462;2023-03-14T17:23:42;19.20;66.20
79065;DHT22;68469;51.502;7.462;2023-03-14T17:26:08;19.20;66.30